Time;durP1;ratioP1;P1;durP2;ratioP2;P2;SDS_P1;SDS_P2;PMS_P1;PMS_P2;Temp;Humidity;BMP_temperature;BMP_pressure;BME280_temperature;BME280_humidity;BME280_pressure;Samples;Min_cycle;Max_cycle;Signal;HPM_P1;HPM_P2
2023/04/03 00:01:16;;;;;;;3.78;1.83;;;16.80;68.20;;;;;;6273528;22;19999;-78
2023/04/03 00:03:42;;;;;;;2.92;1.60;;;16.70;67.40;;;;;;6274542;22;20034;-78
2023/04/03 00:06:08;;;;;;;3.38;1.83;;;16.70;67.70;;;;;;6273736;22;19996;-79
2023/04/03 00:08:35;;;;;;;4.10;1.80;;;16.70;67.60;;;;;;6275663;22;20004;-83
2023/04/03 00:11:01;;;;;;;2.60;1.90;;;16.60;67.10;;;;;;6276334;22;19999;-83
2023/04/03 00:13:27;;;;;;;3.92;1.90;;;16.60;66.90;;;;;;6277311;22;20046;-83
2023/04/03 00:15:53;;;;;;;5.05;1.70;;;16.60;66.90;;;;;;6276651;22;19999;-83
2023/04/03 00:18:19;;;;;;;4.82;2.42;;;16.60;66.90;;;;;;6277185;22;20053;-82
2023/04/03 00:20:45;;;;;;;4.88;2.40;;;16.60;66.90;;;;;;6277862;22;19999;-83
2023/04/03 00:23:11;;;;;;;3.88;1.90;;;16.60;67.30;;;;;;6250911;22;20011;-84
2023/04/03 00:25:37;;;;;;;4.38;2.40;;;16.60;67.30;;;;;;6278309;22;20566;-85
2023/04/03 00:28:03;;;;;;;5.20;2.38;;;16.50;67.30;;;;;;6251164;22;20004;-85
2023/04/03 00:30:29;;;;;;;5.93;3.20;;;16.50;67.10;;;;;;6277953;22;20410;-85
2023/04/03 00:32:55;;;;;;;7.00;3.17;;;16.50;66.80;;;;;;6277765;22;20083;-85
2023/04/03 00:35:22;;;;;;;4.57;3.28;;;16.40;67.60;;;;;;6278137;22;20053;-83
2023/04/03 00:37:50;;;;;;;5.50;3.25;;;16.40;67.70;;;;;;6277664;22;20038;-85
2023/04/03 00:40:16;;;;;;;4.53;3.00;;;16.40;67.40;;;;;;6251886;22;20363;-85
2023/04/03 00:42:44;;;;;;;5.63;3.40;;;16.40;68.00;;;;;;6278513;22;20041;-83
2023/04/03 00:45:31;;;;;;;5.93;3.65;;;16.30;67.90;;;;;;6278222;22;20007;-84
2023/04/03 00:47:59;;;;;;;4.53;3.20;;;16.30;67.80;;;;;;6277965;22;20006;-83
2023/04/03 00:50:26;;;;;;;3.42;2.80;;;16.30;68.20;;;;;;6278069;22;20000;-83
2023/04/03 00:52:53;;;;;;;4.57;2.85;;;16.20;67.80;;;;;;6278059;22;20004;-83
2023/04/03 00:55:20;;;;;;;3.42;2.70;;;16.20;67.80;;;;;;6277332;22;20003;-84
2023/04/03 00:57:46;;;;;;;4.38;2.88;;;16.20;68.20;;;;;;6277677;22;20426;-83
2023/04/03 01:00:16;;;;;;;6.03;2.90;;;16.00;68.00;;;;;;6250189;22;20011;-83
2023/04/03 01:02:42;;;;;;;3.22;2.65;;;16.10;68.30;;;;;;6276544;22;20006;-83
2023/04/03 01:05:08;;;;;;;3.78;2.65;;;16.00;68.50;;;;;;6249979;22;20004;-83
2023/04/03 01:07:36;;;;;;;3.67;2.70;;;16.00;68.40;;;;;;6276322;22;20055;-82
2023/04/03 01:10:06;;;;;;;3.08;2.40;;;16.00;68.20;;;;;;6248127;22;20052;-83
2023/04/03 01:12:37;;;;;;;5.95;2.95;;;16.00;68.20;;;;;;6276041;22;20090;-82
2023/04/03 01:15:19;;;;;;;3.83;2.30;;;16.00;68.80;;;;;;6276552;22;20004;-82
2023/04/03 01:17:59;;;;;;;3.22;2.13;;;16.00;69.00;;;;;;6276771;22;20003;-82
2023/04/03 01:20:31;;;;;;;3.08;1.98;;;15.90;68.40;;;;;;6277467;22;20007;-82
2023/04/03 01:23:07;;;;;;;2.78;1.77;;;15.90;68.80;;;;;;6277201;22;20003;-82
2023/04/03 01:25:34;;;;;;;2.17;1.60;;;16.00;68.80;;;;;;6276858;22;20448;-83
2023/04/03 01:27:59;;;;;;;3.00;1.58;;;16.00;68.70;;;;;;6276838;22;20067;-81
2023/04/03 01:30:35;;;;;;;3.83;1.50;;;16.00;68.80;;;;;;6275802;22;20023;-81
2023/04/03 01:33:01;;;;;;;3.78;1.50;;;15.90;68.70;;;;;;6275785;22;20011;-81
2023/04/03 01:35:27;;;;;;;1.92;1.10;;;16.00;68.70;;;;;;6276904;22;20007;-82
2023/04/03 01:37:53;;;;;;;1.52;1.10;;;15.90;68.50;;;;;;6277222;22;20362;-83
2023/04/03 01:40:18;;;;;;;2.30;1.00;;;16.00;68.60;;;;;;6276618;22;20007;-83
2023/04/03 01:42:45;;;;;;;1.50;0.90;;;16.00;68.50;;;;;;6277516;22;20007;-83
2023/04/03 01:45:11;;;;;;;1.85;1.10;;;16.00;68.60;;;;;;6277209;22;19996;-83
2023/04/03 01:47:36;;;;;;;1.00;0.90;;;16.00;68.60;;;;;;6248877;22;20087;-82
2023/04/03 01:50:02;;;;;;;1.92;1.40;;;16.00;68.50;;;;;;6249301;22;20345;-82
2023/04/03 01:52:28;;;;;;;2.03;0.93;;;15.90;68.60;;;;;;6249144;22;20053;-81
2023/04/03 01:54:53;;;;;;;1.42;0.80;;;15.90;68.70;;;;;;6276238;22;20140;-81
2023/04/03 01:57:19;;;;;;;2.50;0.73;;;15.90;68.80;;;;;;6249230;22;20003;-81
2023/04/03 01:59:45;;;;;;;1.85;0.90;;;15.90;68.90;;;;;;6276384;22;20318;-82
2023/04/03 02:02:12;;;;;;;1.40;0.88;;;15.90;69.10;;;;;;6275218;22;20003;-82
2023/04/03 02:04:38;;;;;;;1.27;0.85;;;15.90;69.10;;;;;;6249354;22;20003;-82
2023/04/03 02:07:03;;;;;;;0.80;0.80;;;15.90;69.30;;;;;;6276447;22;20371;-82
2023/04/03 02:09:29;;;;;;;0.60;0.60;;;15.80;69.30;;;;;;6277025;22;20019;-82
2023/04/03 02:11:55;;;;;;;0.85;0.70;;;15.80;69.50;;;;;;6248745;22;20011;-83
2023/04/03 02:14:21;;;;;;;0.65;0.60;;;15.80;69.60;;;;;;6276502;22;20004;-83
2023/04/03 02:16:47;;;;;;;1.42;0.80;;;15.90;69.80;;;;;;6276844;22;20003;-82
2023/04/03 02:19:13;;;;;;;1.15;0.60;;;15.90;69.90;;;;;;6275739;22;20079;-82
2023/04/03 02:21:38;;;;;;;2.92;0.70;;;15.80;69.90;;;;;;6275584;22;20085;-82
2023/04/03 02:24:05;;;;;;;1.55;0.70;;;15.90;70.20;;;;;;6276036;22;20010;-82
2023/04/03 02:26:31;;;;;;;1.38;0.70;;;15.80;70.20;;;;;;6275923;22;20000;-80
2023/04/03 02:28:56;;;;;;;1.95;0.50;;;15.90;70.60;;;;;;6276402;22;20376;-80
2023/04/03 02:31:23;;;;;;;0.60;0.47;;;15.90;70.70;;;;;;6276068;22;20049;-80
2023/04/03 02:33:49;;;;;;;2.45;0.57;;;15.80;71.20;;;;;;6275484;22;20003;-80
2023/04/03 02:36:15;;;;;;;1.50;0.70;;;15.80;71.20;;;;;;6275263;22;20061;-81
2023/04/03 02:38:42;;;;;;;0.55;0.55;;;15.80;71.30;;;;;;6275744;22;20306;-81
2023/04/03 02:41:10;;;;;;;1.50;0.60;;;15.80;71.60;;;;;;6276085;22;20050;-82
2023/04/03 02:43:35;;;;;;;1.33;0.68;;;15.70;71.60;;;;;;6276225;22;20014;-82
2023/04/03 02:46:01;;;;;;;2.35;0.70;;;15.70;71.60;;;;;;6276610;22;20381;-83
2023/04/03 02:48:27;;;;;;;1.20;1.00;;;15.70;71.40;;;;;;6277229;22;20003;-81
2023/04/03 02:50:53;;;;;;;0.82;0.60;;;15.70;71.20;;;;;;6249253;22;19999;-83
2023/04/03 02:53:19;;;;;;;1.33;0.80;;;15.70;71.20;;;;;;6276796;22;20497;-82
2023/04/03 02:55:45;;;;;;;1.75;0.88;;;15.70;71.20;;;;;;6249611;22;20073;-82
2023/04/03 02:58:11;;;;;;;1.63;0.93;;;15.60;71.10;;;;;;6276805;22;20433;-83
2023/04/03 03:00:37;;;;;;;4.00;1.15;;;15.60;70.90;;;;;;6277147;22;20505;-83
2023/04/03 03:03:03;;;;;;;2.08;1.10;;;15.60;71.00;;;;;;6249913;22;20020;-83
2023/04/03 03:05:29;;;;;;;2.13;1.35;;;15.60;70.60;;;;;;6276951;22;19996;-84
2023/04/03 03:07:55;;;;;;;2.05;1.30;;;15.60;70.50;;;;;;6277043;22;20398;-83
2023/04/03 03:10:22;;;;;;;1.70;1.20;;;15.60;70.90;;;;;;6276175;22;20764;-83
2023/04/03 03:12:47;;;;;;;2.55;1.70;;;15.60;71.00;;;;;;6276283;22;20012;-85
2023/04/03 03:15:13;;;;;;;3.33;1.90;;;15.50;71.10;;;;;;6275489;22;20010;-85
2023/04/03 03:17:39;;;;;;;3.88;1.55;;;15.50;71.20;;;;;;6276442;22;20008;-83
2023/04/03 03:20:06;;;;;;;2.85;1.88;;;15.40;70.90;;;;;;6275605;22;20000;-84
2023/04/03 03:22:32;;;;;;;3.35;1.90;;;15.40;71.30;;;;;;6275916;22;20004;-84
2023/04/03 03:24:58;;;;;;;4.80;2.03;;;15.40;71.90;;;;;;6275344;22;19995;-84
2023/04/03 03:27:24;;;;;;;3.22;1.73;;;15.40;71.30;;;;;;6276347;22;20062;-84
2023/04/03 03:29:50;;;;;;;2.95;1.52;;;15.40;71.70;;;;;;6249656;22;20003;-84
2023/04/03 03:32:15;;;;;;;2.38;1.50;;;15.30;71.70;;;;;;6249065;22;20393;-85
2023/04/03 03:34:41;;;;;;;5.25;1.50;;;15.30;72.00;;;;;;6277115;22;20026;-84
2023/04/03 03:37:07;;;;;;;2.97;1.42;;;15.30;71.90;;;;;;6276411;22;20004;-84
2023/04/03 03:39:33;;;;;;;3.22;1.42;;;15.20;72.20;;;;;;6249297;22;20004;-83
2023/04/03 03:41:58;;;;;;;2.78;1.45;;;15.20;72.20;;;;;;6276934;22;20011;-84
2023/04/03 03:44:24;;;;;;;1.83;1.25;;;15.20;72.10;;;;;;6276304;22;19999;-84
2023/04/03 03:46:50;;;;;;;3.72;1.13;;;15.20;71.70;;;;;;6250223;22;20083;-83
2023/04/03 03:49:16;;;;;;;2.47;0.93;;;15.20;72.20;;;;;;6277871;22;20027;-83
2023/04/03 03:51:41;;;;;;;1.70;0.98;;;15.10;72.00;;;;;;6277831;22;20004;-84
2023/04/03 03:54:07;;;;;;;4.13;0.90;;;15.10;71.80;;;;;;6276698;22;20008;-83
2023/04/03 03:56:33;;;;;;;4.50;0.98;;;15.10;71.80;;;;;;6277757;22;20007;-83
2023/04/03 03:58:59;;;;;;;4.22;0.80;;;15.10;71.90;;;;;;6277984;22;20003;-83
2023/04/03 04:01:25;;;;;;;2.10;0.50;;;15.10;71.90;;;;;;6276819;22;20011;-82
2023/04/03 04:03:51;;;;;;;2.83;0.65;;;15.10;71.60;;;;;;6276657;22;20006;-82
2023/04/03 04:06:17;;;;;;;4.63;0.93;;;15.10;71.50;;;;;;6248737;22;20008;-81
2023/04/03 04:08:43;;;;;;;3.25;0.82;;;15.10;71.50;;;;;;6276155;22;20006;-81
2023/04/03 04:11:09;;;;;;;2.03;0.98;;;15.10;71.30;;;;;;6276793;22;20026;-82
2023/04/03 04:13:35;;;;;;;5.20;0.80;;;15.10;71.80;;;;;;6276770;22;20466;-82
2023/04/03 04:16:01;;;;;;;3.40;0.80;;;15.20;71.50;;;;;;6276968;22;20004;-82
2023/04/03 04:18:26;;;;;;;1.98;0.70;;;15.10;71.50;;;;;;6276633;22;20444;-82
2023/04/03 04:20:52;;;;;;;1.58;0.80;;;15.10;71.70;;;;;;6275226;22;20008;-82
2023/04/03 04:23:18;;;;;;;1.90;0.95;;;15.10;71.90;;;;;;6248246;22;20503;-82
2023/04/03 04:25:48;;;;;;;3.45;0.93;;;15.10;72.10;;;;;;6275762;22;20283;-82
2023/04/03 04:28:14;;;;;;;1.40;0.80;;;15.10;72.30;;;;;;6275556;22;20045;-81
2023/04/03 04:30:41;;;;;;;1.23;0.80;;;15.10;72.60;;;;;;6276167;22;20000;-80
2023/04/03 04:33:06;;;;;;;1.70;0.93;;;15.00;72.70;;;;;;6275838;22;20436;-80
2023/04/03 04:35:33;;;;;;;2.45;0.90;;;15.00;72.90;;;;;;6275880;22;20071;-81
2023/04/03 04:37:58;;;;;;;3.63;0.73;;;15.00;73.10;;;;;;6276710;22;20027;-83
2023/04/03 04:40:24;;;;;;;3.40;1.25;;;14.90;73.30;;;;;;6276633;22;20045;-83
2023/04/03 04:42:50;;;;;;;2.97;1.00;;;14.90;73.40;;;;;;6276717;22;20004;-82
2023/04/03 04:45:16;;;;;;;1.90;0.95;;;14.90;73.50;;;;;;6276709;22;20002;-84
2023/04/03 04:47:41;;;;;;;3.47;1.02;;;14.90;73.60;;;;;;6277394;22;20000;-82
2023/04/03 04:50:08;;;;;;;3.15;0.93;;;14.90;73.70;;;;;;6276401;22;19999;-82
2023/04/03 04:52:33;;;;;;;4.88;1.08;;;14.80;73.80;;;;;;6276616;22;20027;-78
2023/04/03 04:54:59;;;;;;;1.63;0.80;;;14.90;73.90;;;;;;6247941;22;20003;-78
2023/04/03 04:57:25;;;;;;;1.92;0.80;;;14.90;74.00;;;;;;6275809;22;20082;-77
2023/04/03 04:59:51;;;;;;;2.75;0.90;;;14.80;74.00;;;;;;6276110;22;20038;-76
2023/04/03 05:02:17;;;;;;;2.47;0.93;;;14.80;73.70;;;;;;6274562;22;20034;-76
2023/04/03 05:04:43;;;;;;;1.60;0.85;;;14.80;74.20;;;;;;6274020;22;20050;-76
2023/04/03 05:07:09;;;;;;;3.40;1.20;;;14.80;74.30;;;;;;6274984;22;20004;-75
2023/04/03 05:09:35;;;;;;;2.22;1.05;;;14.70;74.30;;;;;;6274041;22;20007;-75
2023/04/03 05:12:02;;;;;;;3.72;1.00;;;14.70;74.30;;;;;;6275234;22;20020;-75
2023/04/03 05:14:28;;;;;;;3.78;1.48;;;14.70;74.20;;;;;;6275347;22;20050;-75
2023/04/03 05:16:54;;;;;;;2.28;1.33;;;14.60;74.00;;;;;;6276413;22;20000;-82
2023/04/03 05:19:23;;;;;;;2.45;1.13;;;14.60;73.90;;;;;;6276454;22;20074;-81
2023/04/03 05:21:48;;;;;;;1.92;0.98;;;14.60;73.70;;;;;;6276524;22;20007;-80
2023/04/03 05:24:15;;;;;;;4.07;1.05;;;14.60;73.80;;;;;;6276187;22;20540;-80
2023/04/03 05:26:41;;;;;;;4.57;1.00;;;14.60;73.40;;;;;;6276496;22;19996;-81
2023/04/03 05:29:07;;;;;;;2.45;0.95;;;14.60;73.10;;;;;;6276673;22;19992;-82
2023/04/03 05:31:33;;;;;;;3.50;1.02;;;14.60;72.80;;;;;;6276369;22;19996;-79
2023/04/03 05:33:59;;;;;;;3.38;1.00;;;14.60;72.80;;;;;;6276686;22;20014;-79
2023/04/03 05:36:25;;;;;;;4.20;1.23;;;14.50;71.90;;;;;;6276801;22;19999;-79
2023/04/03 05:38:51;;;;;;;5.78;1.17;;;14.60;71.60;;;;;;6275926;22;20002;-80
2023/04/03 05:41:17;;;;;;;3.70;1.27;;;14.60;71.40;;;;;;6275292;22;20006;-80
2023/04/03 05:43:42;;;;;;;5.47;1.30;;;14.60;70.80;;;;;;6274198;22;20035;-76
2023/04/03 05:46:12;;;;;;;3.95;0.98;;;14.60;69.30;;;;;;6273663;22;20003;-75
2023/04/03 05:48:38;;;;;;;2.83;1.00;;;14.50;69.40;;;;;;6274374;22;19995;-76
2023/04/03 05:51:06;;;;;;;5.03;0.98;;;14.60;69.30;;;;;;6247440;22;20010;-77
2023/04/03 05:53:35;;;;;;;3.03;1.00;;;14.60;68.90;;;;;;6274388;22;20007;-77
2023/04/03 05:56:01;;;;;;;4.95;0.77;;;14.60;68.00;;;;;;6275599;22;20008;-76
2023/04/03 05:58:27;;;;;;;3.85;0.70;;;14.70;68.60;;;;;;6247941;22;20090;-76
2023/04/03 06:00:53;;;;;;;2.15;1.10;;;14.70;68.20;;;;;;6274689;22;20010;-76
2023/04/03 06:03:18;;;;;;;3.75;1.10;;;14.70;67.90;;;;;;6274532;22;20015;-76
2023/04/03 06:05:44;;;;;;;9.35;1.50;;;14.70;68.00;;;;;;6275128;22;19999;-75
2023/04/03 06:08:10;;;;;;;4.60;1.40;;;14.60;67.40;;;;;;6273957;22;20000;-75
2023/04/03 06:10:36;;;;;;;6.78;1.52;;;14.60;67.30;;;;;;6248120;22;20004;-75
2023/04/03 06:13:01;;;;;;;11.07;0.90;;;14.70;67.10;;;;;;6274413;22;20111;-77
2023/04/03 06:15:28;;;;;;;4.47;1.25;;;14.70;66.90;;;;;;6274996;22;20365;-78
2023/04/03 06:17:54;;;;;;;4.78;1.13;;;14.60;65.60;;;;;;6275600;22;20006;-75
2023/04/03 06:20:20;;;;;;;4.22;0.95;;;14.70;66.00;;;;;;6276608;22;20004;-80
2023/04/03 06:22:45;;;;;;;12.13;1.83;;;14.70;65.70;;;;;;6277146;22;20006;-79
2023/04/03 06:25:12;;;;;;;4.45;0.90;;;14.70;64.90;;;;;;6277626;22;20000;-80
2023/04/03 06:27:38;;;;;;;5.88;0.90;;;14.70;65.40;;;;;;6277224;22;20626;-80
2023/04/03 06:30:05;;;;;;;3.47;1.00;;;14.80;65.40;;;;;;6277170;22;19999;-79
2023/04/03 06:32:30;;;;;;;2.63;0.98;;;14.80;62.60;;;;;;6277016;22;20000;-80
2023/04/03 06:34:57;;;;;;;3.80;1.08;;;14.80;64.00;;;;;;6250520;22;20010;-80
2023/04/03 06:37:25;;;;;;;2.25;0.93;;;14.80;64.50;;;;;;6276937;22;20170;-81
2023/04/03 06:39:51;;;;;;;3.47;1.10;;;14.90;63.90;;;;;;6276872;22;20137;-80
2023/04/03 06:42:17;;;;;;;3.72;1.08;;;14.90;63.20;;;;;;6276573;22;20006;-80
2023/04/03 06:44:43;;;;;;;4.15;1.33;;;15.00;63.20;;;;;;6276878;22;20003;-80
2023/04/03 06:47:15;;;;;;;4.55;1.08;;;15.00;63.20;;;;;;6249931;22;20445;-80
2023/04/03 06:49:41;;;;;;;6.50;1.10;;;15.00;62.80;;;;;;6277109;22;19995;-80
2023/04/03 06:52:07;;;;;;;7.63;1.42;;;15.00;61.90;;;;;;6276835;22;20078;-80
2023/04/03 06:54:33;;;;;;;4.93;1.48;;;15.00;62.00;;;;;;6276926;22;20000;-80
2023/04/03 06:56:59;;;;;;;2.08;1.02;;;15.10;62.30;;;;;;6276736;22;20014;-79
2023/04/03 06:59:25;;;;;;;5.57;1.17;;;15.20;62.80;;;;;;6276860;22;20000;-80
2023/04/03 07:01:51;;;;;;;2.17;0.93;;;15.30;62.10;;;;;;6276999;22;20042;-80
2023/04/03 07:04:18;;;;;;;5.25;1.05;;;15.30;61.90;;;;;;6277402;22;20022;-80
2023/04/03 07:06:43;;;;;;;4.85;0.90;;;15.30;61.10;;;;;;6249686;22;20007;-79
2023/04/03 07:09:10;;;;;;;3.30;1.52;;;15.30;61.80;;;;;;6276546;22;19996;-79
2023/04/03 07:11:36;;;;;;;3.42;1.17;;;15.30;60.80;;;;;;6276482;22;20307;-79
2023/04/03 07:14:02;;;;;;;2.38;0.95;;;15.30;61.00;;;;;;6277031;22;19999;-80
2023/04/03 07:16:30;;;;;;;2.47;1.27;;;15.30;61.20;;;;;;6276335;22;20069;-79
2023/04/03 07:18:57;;;;;;;1.55;0.70;;;15.30;60.30;;;;;;6277783;22;20363;-80
2023/04/03 07:21:23;;;;;;;3.47;0.80;;;15.30;60.80;;;;;;6278832;22;20006;-80
2023/04/03 07:23:48;;;;;;;2.78;0.85;;;15.40;60.10;;;;;;6278593;22;20079;-76
2023/04/03 07:26:14;;;;;;;2.63;1.00;;;15.40;59.50;;;;;;6278727;22;19995;-75
2023/04/03 07:28:41;;;;;;;6.20;1.10;;;15.40;60.00;;;;;;6278820;22;20122;-75
2023/04/03 07:31:10;;;;;;;3.33;1.00;;;15.40;59.50;;;;;;6278421;22;20031;-75
2023/04/03 07:33:37;;;;;;;5.15;1.00;;;15.40;59.30;;;;;;6279036;22;20426;-74
2023/04/03 07:36:04;;;;;;;4.07;1.00;;;15.30;58.50;;;;;;6278566;22;20007;-75
2023/04/03 07:38:30;;;;;;;2.28;1.02;;;15.30;59.10;;;;;;6278164;22;20000;-80
2023/04/03 07:40:56;;;;;;;3.00;0.88;;;15.30;58.70;;;;;;6279049;22;20070;-80
2023/04/03 07:43:24;;;;;;;2.05;0.80;;;15.30;58.80;;;;;;6278891;22;20027;-80
2023/04/03 07:45:50;;;;;;;7.20;0.85;;;15.40;58.90;;;;;;6278531;22;19996;-80
2023/04/03 07:48:18;;;;;;;2.75;0.95;;;15.50;58.20;;;;;;6278594;22;19995;-80
2023/04/03 07:50:44;;;;;;;1.75;0.63;;;15.40;58.20;;;;;;6278487;22;20418;-75
2023/04/03 07:53:10;;;;;;;4.30;0.80;;;15.50;58.60;;;;;;6277547;22;20010;-75
2023/04/03 07:55:42;;;;;;;5.72;1.10;;;15.60;58.50;;;;;;6278511;22;20026;-75
2023/04/03 07:58:11;;;;;;;4.30;1.13;;;15.50;57.90;;;;;;6278696;22;20079;-75
2023/04/03 08:00:37;;;;;;;5.93;1.65;;;15.60;58.10;;;;;;6276476;22;20508;-80
2023/04/03 08:03:04;;;;;;;3.53;1.10;;;15.60;57.80;;;;;;6277032;22;20027;-80
2023/04/03 08:05:29;;;;;;;3.03;1.00;;;15.70;57.10;;;;;;6277138;22;20000;-79
2023/04/03 08:07:55;;;;;;;4.55;1.05;;;15.70;57.40;;;;;;6250428;22;20024;-80
2023/04/03 08:10:21;;;;;;;5.80;1.00;;;15.70;57.20;;;;;;6276616;22;20006;-78
2023/04/03 08:12:47;;;;;;;6.35;1.65;;;15.80;57.30;;;;;;6276363;22;20016;-76
2023/04/03 08:15:13;;;;;;;18.55;2.13;;;15.60;57.10;;;;;;6249137;22;20388;-76
2023/04/03 08:17:39;;;;;;;4.15;1.00;;;15.70;58.50;;;;;;6276195;22;20166;-76
2023/04/03 08:20:06;;;;;;;5.80;1.25;;;15.90;58.50;;;;;;6275292;22;20000;-75
2023/04/03 08:22:33;;;;;;;5.50;1.15;;;15.90;56.80;;;;;;6274761;22;20003;-76
2023/04/03 08:24:59;;;;;;;4.22;1.00;;;15.70;56.50;;;;;;6273587;22;20031;-76
2023/04/03 08:27:26;;;;;;;11.20;1.35;;;15.80;57.30;;;;;;6275043;22;20027;-77
2023/04/03 08:29:52;;;;;;;5.22;1.10;;;15.90;56.30;;;;;;6275945;22;20137;-75
2023/04/03 08:32:17;;;;;;;8.20;1.23;;;16.10;57.00;;;;;;6274691;22;20494;-76
2023/04/03 08:34:43;;;;;;;7.80;1.13;;;16.00;55.00;;;;;;6273341;22;20004;-76
2023/04/03 08:37:09;;;;;;;7.95;1.17;;;16.20;56.60;;;;;;6277341;22;20007;-77
2023/04/03 08:39:35;;;;;;;7.25;2.08;;;16.40;56.70;;;;;;6277486;22;20027;-83
2023/04/03 08:42:12;;;;;;;19.73;1.55;;;16.40;55.40;;;;;;6278431;22;20004;-85
2023/04/03 08:44:48;;;;;;;11.25;1.42;;;16.20;54.50;;;;;;6278631;22;20430;-85
2023/04/03 08:47:38;;;;;;;34.22;2.55;;;16.30;56.10;;;;;;6278551;22;20344;-88
2023/04/03 08:50:11;;;;;;;;;;;16.60;58.20;;;;;;6279088;22;20028;-89
2023/04/03 08:52:47;;;;;;;143.60;14.70;;;16.70;56.60;;;;;;6251613;22;19899;-86
2023/04/03 08:55:16;;;;;;;30.25;3.13;;;16.90;55.20;;;;;;6278563;22;20000;-88
2023/04/03 08:57:44;;;;;;;23.98;3.22;;;17.10;57.50;;;;;;6277801;22;20006;-86
2023/04/03 09:00:13;;;;;;;10.98;2.13;;;17.20;56.30;;;;;;6277994;22;20376;-86
2023/04/03 09:02:47;;;;;;;31.75;2.40;;;17.30;56.80;;;;;;6277707;22;20007;-86
2023/04/03 09:05:19;;;;;;;7.43;1.50;;;17.40;52.30;;;;;;6277987;22;20000;-86
2023/04/03 09:08:05;;;;;;;7.50;2.03;;;17.50;55.00;;;;;;6277682;22;20080;-87
2023/04/03 09:10:34;;;;;;;10.00;1.88;;;17.50;53.70;;;;;;6277849;22;20000;-87
2023/04/03 09:13:20;;;;;;;3.60;1.00;;;17.50;54.50;;;;;;6277556;22;20016;-88
2023/04/03 09:15:45;;;;;;;7.10;1.65;;;17.70;53.60;;;;;;6278295;22;20060;-88
2023/04/03 09:18:27;;;;;;;8.27;1.25;;;17.70;54.20;;;;;;6278137;22;20063;-88
2023/04/03 09:21:15;;;;;;;9.88;1.30;;;17.70;52.80;;;;;;6277498;22;20431;-88
2023/04/03 09:23:51;;;;;;;6.13;1.17;;;17.80;51.70;;;;;;6277432;22;20023;-87
2023/04/03 09:26:25;;;;;;;7.07;1.48;;;17.80;52.60;;;;;;6277797;22;20006;-81
2023/04/03 09:28:54;;;;;;;8.07;1.10;;;18.00;53.20;;;;;;6277177;22;20022;-75
2023/04/03 09:31:27;;;;;;;8.30;1.77;;;18.10;51.90;;;;;;6276997;22;20426;-74
2023/04/03 09:33:59;;;;;;;6.40;1.10;;;18.30;51.60;;;;;;6277487;22;20003;-75
2023/04/03 09:36:55;;;;;;;5.50;1.05;;;18.40;50.20;;;;;;6275643;22;20018;-74
2023/04/03 09:39:27;;;;;;;6.38;1.33;;;18.40;49.60;;;;;;6257338;22;20007;-75
2023/04/03 09:41:59;;;;;;;15.45;1.25;;;18.50;50.00;;;;;;6275775;22;20330;-76
2023/04/03 09:44:30;;;;;;;5.68;1.38;;;18.60;48.10;;;;;;6276097;22;20023;-76
2023/04/03 09:46:56;;;;;;;8.20;1.05;;;18.70;49.60;;;;;;6273198;22;19996;-85
2023/04/03 09:49:22;;;;;;;6.28;1.05;;;18.70;50.30;;;;;;6277168;22;20002;-84
2023/04/03 09:51:49;;;;;;;9.98;0.98;;;19.00;48.60;;;;;;6277379;22;20000;-85
2023/04/03 09:54:30;;;;;;;6.78;1.30;;;18.90;49.20;;;;;;6277172;22;20075;-85
2023/04/03 09:56:58;;;;;;;8.95;0.90;;;19.10;49.40;;;;;;6277245;22;20049;-84
2023/04/03 09:59:24;;;;;;;7.55;1.10;;;19.00;48.10;;;;;;6277431;22;19999;-85
2023/04/03 10:02:00;;;;;;;10.85;1.80;;;19.00;48.10;;;;;;6249514;22;20029;-84
2023/04/03 10:04:38;;;;;;;11.57;2.50;;;19.00;48.40;;;;;;6274099;22;20053;-84
2023/04/03 10:07:23;;;;;;;4.53;1.15;;;19.20;48.60;;;;;;6249344;22;20348;-85
2023/04/03 10:09:59;;;;;;;9.35;1.50;;;19.40;47.30;;;;;;6275569;22;20075;-85
2023/04/03 10:12:25;;;;;;;9.25;1.25;;;19.40;47.10;;;;;;6276268;22;20023;-86
2023/04/03 10:15:00;;;;;;;3.45;1.42;;;19.40;47.10;;;;;;6276109;22;20027;-85
2023/04/03 10:17:55;;;;;;;2.95;1.10;;;19.40;47.50;;;;;;6277069;22;20061;-87
2023/04/03 10:20:36;;;;;;;4.35;1.33;;;19.50;48.10;;;;;;6249963;22;20029;-87
2023/04/03 10:23:23;;;;;;;5.15;1.48;;;19.60;47.20;;;;;;6276207;22;20038;-87
2023/04/03 10:25:57;;;;;;;4.55;0.85;;;19.70;47.00;;;;;;6276101;22;20000;-78
2023/04/03 10:28:42;;;;;;;2.55;0.85;;;19.80;48.00;;;;;;6274973;22;20031;-77
2023/04/03 10:31:11;;;;;;;8.27;1.75;;;19.80;46.30;;;;;;6275913;22;20007;-78
2023/04/03 10:33:49;;;;;;;3.60;1.30;;;19.90;48.10;;;;;;6276125;22;20004;-78
2023/04/03 10:36:23;;;;;;;5.85;1.40;;;20.10;48.70;;;;;;6276101;22;20368;-78
2023/04/03 10:39:15;;;;;;;3.22;1.08;;;20.40;48.40;;;;;;6276303;22;20484;-77
2023/04/03 10:42:25;;;;;;;3.53;1.15;;;20.50;43.40;;;;;;6240660;22;20079;-77
2023/04/03 10:45:19;;;;;;;8.73;1.52;;;20.30;46.40;;;;;;6256159;22;20000;-77
2023/04/03 10:48:03;;;;;;;5.70;1.25;;;20.40;45.50;;;;;;6275653;22;20054;-78
2023/04/03 10:50:47;;;;;;;4.72;1.10;;;20.30;42.60;;;;;;6275669;22;20003;-77
2023/04/03 10:53:53;;;;;;;3.65;0.77;;;20.30;44.80;;;;;;6275970;22;20325;-77
2023/04/03 10:56:40;;;;;;;3.28;0.80;;;20.40;45.10;;;;;;6275962;22;20378;-78
2023/04/03 10:59:17;;;;;;;5.55;1.35;;;20.50;45.40;;;;;;6275871;22;20078;-78
2023/04/03 11:04:37;;;;;;;10.20;1.13;;;20.70;42.30;;;;;;6346637;22;20022;-83
2023/04/03 11:07:21;;;;;;;2.33;1.02;;;20.80;44.30;;;;;;6370006;22;20277;-83
2023/04/03 11:09:50;;;;;;;3.38;0.90;;;21.00;43.70;;;;;;6369908;22;20003;-84
2023/04/03 11:12:27;;;;;;;9.10;1.13;;;21.10;43.20;;;;;;6369641;22;19998;-84
2023/04/03 11:14:56;;;;;;;3.10;1.05;;;21.20;41.90;;;;;;6370083;22;20455;-85
2023/04/03 11:17:40;;;;;;;3.78;1.20;;;21.40;42.00;;;;;;6370119;22;20362;-84
2023/04/03 11:20:18;;;;;;;4.28;1.17;;;21.60;40.90;;;;;;6342276;22;20006;-84
2023/04/03 11:22:53;;;;;;;4.05;0.95;;;21.60;42.60;;;;;;6369734;22;20058;-84
2023/04/03 11:25:24;;;;;;;5.53;1.25;;;21.70;42.50;;;;;;6370108;22;20005;-83
2023/04/03 11:27:55;;;;;;;6.53;1.17;;;21.90;42.40;;;;;;6370172;22;20623;-84
2023/04/03 11:30:33;;;;;;;6.03;1.77;;;22.20;41.00;;;;;;6370402;22;19994;-84
2023/04/03 11:33:41;;;;;;;7.03;1.15;;;22.10;39.70;;;;;;6369995;22;20082;-83
2023/04/03 11:36:19;;;;;;;5.35;1.50;;;22.30;38.90;;;;;;6370582;22;19998;-84
2023/04/03 11:38:47;;;;;;;5.75;1.23;;;23.80;38.50;;;;;;6370902;22;20002;-83
2023/04/03 11:41:14;;;;;;;3.58;1.20;;;25.40;37.20;;;;;;6341938;22;20013;-83
2023/04/03 11:44:00;;;;;;;5.38;1.45;;;25.40;37.60;;;;;;6368770;22;20013;-82
2023/04/03 11:47:00;;;;;;;4.78;1.30;;;26.60;34.90;;;;;;6341532;22;20018;-82
2023/04/03 11:49:44;;;;;;;;;;;27.70;34.40;;;;;;6369426;22;20420;-83
2023/04/03 11:52:11;;;;;;;4.95;1.23;;;28.60;32.20;;;;;;6372649;22;19898;-79
2023/04/03 11:54:48;;;;;;;4.40;1.00;;;29.30;31.10;;;;;;6374907;22;20205;-78
2023/04/03 11:57:44;;;;;;;4.63;1.25;;;29.50;30.20;;;;;;6375375;22;20069;-80
2023/04/03 12:00:47;;;;;;;2.95;1.10;;;29.90;30.10;;;;;;6375266;22;20002;-80
2023/04/03 12:03:28;;;;;;;4.70;1.10;;;30.10;29.20;;;;;;6373960;22;20017;-78
2023/04/03 12:05:54;;;;;;;6.57;1.42;;;30.30;30.00;;;;;;6347604;22;20025;-79
2023/04/03 12:08:26;;;;;;;2.40;1.20;;;30.40;29.00;;;;;;6377697;22;20297;-79
2023/04/03 12:13:41;;;;;;;5.68;1.45;;;30.10;29.30;;;;;;6376676;22;20061;-78
2023/04/03 12:16:28;;;;;;;6.32;1.13;;;29.80;29.70;;;;;;6376679;22;20445;-78
2023/04/03 12:19:00;;;;;;;2.97;1.35;;;29.60;29.70;;;;;;6328406;22;20013;-79
2023/04/03 12:21:41;;;;;;;4.20;1.27;;;29.50;30.00;;;;;;6373676;22;20005;-80
2023/04/03 12:24:12;;;;;;;12.13;1.80;;;29.50;30.00;;;;;;6375073;22;20327;-81
2023/04/03 12:26:59;;;;;;;7.32;1.45;;;29.30;29.70;;;;;;6348963;22;20450;-80
2023/04/03 12:29:34;;;;;;;3.75;1.20;;;29.00;28.00;;;;;;6376247;22;19998;-81
2023/04/03 12:32:24;;;;;;;8.02;1.30;;;29.20;29.80;;;;;;6347876;22;19998;-80
2023/04/03 12:35:17;;;;;;;7.63;1.20;;;29.30;29.30;;;;;;6378799;22;20002;-81
2023/04/03 12:38:02;;;;;;;5.45;1.35;;;29.40;29.10;;;;;;6378740;22;20005;-80
2023/04/03 12:40:43;;;;;;;7.55;1.63;;;29.40;29.50;;;;;;6379621;22;20317;-80
2023/04/03 12:43:25;;;;;;;4.95;1.20;;;29.80;29.10;;;;;;6378212;22;20416;-81
2023/04/03 12:46:01;;;;;;;10.63;1.65;;;30.20;28.70;;;;;;6378654;22;20418;-80
2023/04/03 12:48:30;;;;;;;4.03;0.93;;;30.50;27.40;;;;;;6378761;22;20456;-82
2023/04/03 12:50:58;;;;;;;4.35;1.60;;;30.60;28.20;;;;;;6376560;22;20025;-81
2023/04/03 12:53:30;;;;;;;5.40;1.45;;;30.80;28.10;;;;;;6343359;22;20081;-82
2023/04/03 12:55:57;;;;;;;3.63;1.10;;;30.90;27.80;;;;;;6371237;22;19998;-81
2023/04/03 12:58:28;;;;;;;5.15;1.38;;;31.00;27.90;;;;;;6371125;22;19998;-81
2023/04/03 13:01:24;;;;;;;6.28;1.33;;;31.00;27.40;;;;;;6371160;22;19994;-81
2023/04/03 13:03:56;;;;;;;9.23;1.63;;;30.80;27.00;;;;;;6351485;22;20015;-81
2023/04/03 13:06:27;;;;;;;1.60;0.80;;;30.80;27.30;;;;;;6371365;22;20024;-81